Time;durP1;ratioP1;P1;durP2;ratioP2;P2;SDS_P1;SDS_P2;PMS_P1;PMS_P2;Temp;Humidity;BMP_temperature;BMP_pressure;BME280_temperature;BME280_humidity;BME280_pressure;Samples;Min_cycle;Max_cycle;Signal;HPM_P1;HPM_P2
2022/09/14 00:01:18;;;;;;;11.30;6.28;;;13.00;99.90;;;;;;5088683;28;20048;-73
2022/09/14 00:03:46;;;;;;;14.13;6.30;;;13.00;99.90;;;;;;5086628;28;20047;-73
2022/09/14 00:06:16;;;;;;;9.30;5.72;;;13.00;99.90;;;;;;5093248;28;20449;-73
2022/09/14 00:08:44;;;;;;;11.88;6.03;;;12.90;99.90;;;;;;5074307;28;20048;-73
2022/09/14 00:11:13;;;;;;;11.90;5.97;;;12.90;99.90;;;;;;5097233;28;20040;-73
2022/09/14 00:13:43;;;;;;;10.90;5.63;;;13.00;99.90;;;;;;5096639;28;20032;-73
2022/09/14 00:16:14;;;;;;;13.45;6.22;;;13.00;99.90;;;;;;5096752;28;20487;-72
2022/09/14 00:18:41;;;;;;;14.85;6.18;;;13.00;99.90;;;;;;5096969;28;20044;-73
2022/09/14 00:21:11;;;;;;;10.90;5.53;;;13.10;99.90;;;;;;5075379;28;20040;-73
2022/09/14 00:23:41;;;;;;;12.00;5.97;;;13.00;99.90;;;;;;5093186;28;20395;-73
2022/09/14 00:26:10;;;;;;;13.35;5.97;;;13.00;99.90;;;;;;5096396;28;20074;-73
2022/09/14 00:28:39;;;;;;;10.30;6.22;;;13.00;99.90;;;;;;5092192;28;20048;-72
2022/09/14 00:31:07;;;;;;;12.52;5.70;;;13.00;99.90;;;;;;5096676;28;20078;-72
2022/09/14 00:33:35;;;;;;;9.43;5.80;;;13.00;99.90;;;;;;5096467;28;20044;-71
2022/09/14 00:36:08;;;;;;;10.95;5.68;;;13.00;99.90;;;;;;5096845;28;20059;-71
2022/09/14 00:38:36;;;;;;;8.75;5.80;;;13.00;99.90;;;;;;5096773;28;20126;-72
2022/09/14 00:41:07;;;;;;;10.73;5.95;;;13.00;99.90;;;;;;5095854;28;20048;-72
2022/09/14 00:43:49;;;;;;;10.00;5.97;;;13.00;99.90;;;;;;5096109;28;20411;-71
2022/09/14 00:46:16;;;;;;;14.40;5.85;;;13.00;99.90;;;;;;5096451;28;20051;-71
2022/09/14 00:48:44;;;;;;;8.68;5.63;;;13.00;99.90;;;;;;5096061;28;20082;-72
2022/09/14 00:51:11;;;;;;;15.10;5.40;;;13.00;99.90;;;;;;5094577;28;20044;-72
2022/09/14 00:53:39;;;;;;;8.73;5.90;;;13.00;99.90;;;;;;5079048;28;20470;-71
2022/09/14 00:56:08;;;;;;;12.13;5.97;;;13.00;99.90;;;;;;5086454;28;20392;-72
2022/09/14 00:58:35;;;;;;;13.95;7.30;;;13.00;99.90;;;;;;5088687;28;20494;-71
2022/09/14 01:01:02;;;;;;;12.05;7.03;;;12.90;99.90;;;;;;5095188;28;20055;-71
2022/09/14 01:03:30;;;;;;;12.35;6.43;;;12.90;99.90;;;;;;5083779;28;20049;-72
2022/09/14 01:06:10;;;;;;;10.75;6.70;;;12.90;99.90;;;;;;5084421;28;20036;-71
2022/09/14 01:09:06;;;;;;;15.13;11.48;;;12.90;99.90;;;;;;5080143;28;20135;-71
2022/09/14 01:11:51;;;;;;;14.43;10.07;;;12.80;99.90;;;;;;5083819;28;20040;-72
2022/09/14 01:14:30;;;;;;;11.88;7.22;;;12.80;99.90;;;;;;5069924;28;20412;-72
2022/09/14 01:17:03;;;;;;;20.50;13.27;;;12.80;99.90;;;;;;5096007;28;20058;-71
2022/09/14 01:19:46;;;;;;;12.95;8.43;;;12.80;99.90;;;;;;5094753;28;20040;-72
2022/09/14 01:22:21;;;;;;;11.70;6.43;;;12.80;99.90;;;;;;5095569;28;20089;-73
2022/09/14 01:24:56;;;;;;;9.35;6.55;;;12.80;99.90;;;;;;5084987;28;20031;-72
2022/09/14 01:27:31;;;;;;;9.00;6.50;;;12.80;99.90;;;;;;5084382;28;20044;-73
2022/09/14 01:30:06;;;;;;;9.52;7.05;;;12.70;99.90;;;;;;5090389;28;20406;-73
2022/09/14 01:32:39;;;;;;;12.80;8.27;;;12.70;99.90;;;;;;5066151;28;20040;-73
2022/09/14 01:35:11;;;;;;;11.95;8.25;;;12.60;99.90;;;;;;5079786;28;20043;-73
2022/09/14 01:37:43;;;;;;;10.13;7.68;;;12.60;99.90;;;;;;5095821;28;20047;-73
2022/09/14 01:40:16;;;;;;;11.05;7.95;;;12.60;99.90;;;;;;5095474;28;20044;-73
2022/09/14 01:42:48;;;;;;;12.18;8.15;;;12.60;99.90;;;;;;5094680;28;20035;-73
2022/09/14 01:45:18;;;;;;;11.02;7.38;;;12.60;99.90;;;;;;5073693;28;20488;-72
2022/09/14 01:47:49;;;;;;;13.23;7.35;;;12.60;99.90;;;;;;5092989;28;20036;-72
2022/09/14 01:50:20;;;;;;;10.70;6.68;;;12.60;99.90;;;;;;5072924;28;20048;-73
2022/09/14 01:52:53;;;;;;;11.82;7.53;;;12.70;99.90;;;;;;5084324;28;20040;-72
2022/09/14 01:55:25;;;;;;;10.25;7.20;;;12.70;99.90;;;;;;5094754;28;20052;-72
2022/09/14 01:58:01;;;;;;;12.82;7.45;;;12.70;99.90;;;;;;5092838;28;20487;-72
2022/09/14 02:00:31;;;;;;;12.02;6.78;;;12.70;99.90;;;;;;5095139;28;20066;-72
2022/09/14 02:03:02;;;;;;;13.15;6.55;;;12.70;99.90;;;;;;5094594;28;20101;-72
2022/09/14 02:05:34;;;;;;;11.13;6.45;;;12.70;99.90;;;;;;5093972;28;20036;-72
2022/09/14 02:08:02;;;;;;;10.25;6.20;;;12.70;99.90;;;;;;5086612;28;20070;-72
2022/09/14 02:10:30;;;;;;;9.57;5.78;;;12.80;99.90;;;;;;5094713;28;20044;-72
2022/09/14 02:12:59;;;;;;;12.38;6.13;;;12.70;99.90;;;;;;5093865;28;20127;-73
2022/09/14 02:15:27;;;;;;;8.48;6.47;;;12.70;99.90;;;;;;5087887;28;20036;-73
2022/09/14 02:17:54;;;;;;;9.82;6.28;;;12.70;99.90;;;;;;5094426;28;20453;-73
2022/09/14 02:20:28;;;;;;;12.30;6.57;;;12.70;99.90;;;;;;5064623;28;20098;-73
2022/09/14 02:22:55;;;;;;;11.48;7.05;;;12.60;99.90;;;;;;5093544;28;20095;-73
2022/09/14 02:25:23;;;;;;;11.35;6.63;;;12.50;99.90;;;;;;5094176;28;20046;-73
2022/09/14 02:27:51;;;;;;;14.13;6.38;;;12.50;99.90;;;;;;5074893;28;20053;-73
2022/09/14 02:30:20;;;;;;;11.18;6.35;;;12.50;99.90;;;;;;5094235;28;20514;-72
2022/09/14 02:32:59;;;;;;;11.50;6.57;;;12.40;99.90;;;;;;5093763;28;20048;-73
2022/09/14 02:35:34;;;;;;;10.40;6.45;;;12.40;99.90;;;;;;5072674;28;20139;-73
2022/09/14 02:38:08;;;;;;;13.82;6.57;;;12.40;99.90;;;;;;5093991;28;20036;-73
2022/09/14 02:40:39;;;;;;;10.45;6.78;;;12.40;99.90;;;;;;5094355;28;20048;-72
2022/09/14 02:43:18;;;;;;;9.80;6.30;;;12.50;99.90;;;;;;5093890;28;20040;-72
2022/09/14 02:46:05;;;;;;;11.23;6.18;;;12.40;99.90;;;;;;5093828;28;20469;-72
2022/09/14 02:48:38;;;;;;;8.88;5.93;;;12.40;99.90;;;;;;5072989;28;20392;-73
2022/09/14 02:51:13;;;;;;;10.30;6.05;;;12.40;99.90;;;;;;5085541;28;20415;-73
2022/09/14 02:53:46;;;;;;;10.30;6.00;;;12.30;99.90;;;;;;5093615;28;20487;-73
2022/09/14 02:56:15;;;;;;;11.98;6.30;;;12.40;99.90;;;;;;5107262;28;20508;-72
2022/09/14 02:58:44;;;;;;;11.90;6.53;;;12.40;99.90;;;;;;5114386;28;20043;-72
2022/09/14 03:01:15;;;;;;;13.95;7.50;;;12.40;99.90;;;;;;5114308;28;20035;-72
2022/09/14 03:03:42;;;;;;;17.45;8.55;;;12.40;99.90;;;;;;5113478;28;20040;-73
2022/09/14 03:06:10;;;;;;;34.22;15.75;;;12.40;99.90;;;;;;5113863;28;20552;-73
2022/09/14 03:08:37;;;;;;;17.80;10.15;;;12.30;99.90;;;;;;5114313;28;20456;-72
2022/09/14 03:11:06;;;;;;;14.55;7.60;;;12.30;99.90;;;;;;5112799;28;20051;-72
2022/09/14 03:13:34;;;;;;;15.45;6.82;;;12.30;99.90;;;;;;5113722;28;20050;-73
2022/09/14 03:16:05;;;;;;;14.82;7.70;;;12.30;99.90;;;;;;5111727;28;20035;-73
2022/09/14 03:18:34;;;;;;;11.35;6.88;;;12.30;99.90;;;;;;5095757;28;20043;-73
2022/09/14 03:21:06;;;;;;;13.15;7.10;;;12.20;99.90;;;;;;5113759;28;20047;-71
2022/09/14 03:23:37;;;;;;;13.95;8.52;;;12.30;99.90;;;;;;5113971;28;20054;-72
2022/09/14 03:26:08;;;;;;;12.30;8.10;;;12.20;99.90;;;;;;5113438;28;20039;-72
2022/09/14 03:28:35;;;;;;;11.25;7.78;;;12.20;99.90;;;;;;5113194;28;20460;-72
2022/09/14 03:31:03;;;;;;;14.50;8.75;;;12.20;99.90;;;;;;5113663;28;20046;-72
2022/09/14 03:33:31;;;;;;;11.32;8.27;;;12.10;99.90;;;;;;5113313;28;20047;-72
2022/09/14 03:36:00;;;;;;;11.15;8.15;;;12.10;99.90;;;;;;5113833;28;20440;-72
2022/09/14 03:38:28;;;;;;;21.05;8.20;;;12.20;99.90;;;;;;5113507;28;20040;-72
2022/09/14 03:40:56;;;;;;;14.95;7.65;;;12.20;99.90;;;;;;5113449;28;20054;-72
2022/09/14 03:43:25;;;;;;;11.40;8.07;;;12.20;99.90;;;;;;5115024;28;20051;-71
2022/09/14 03:45:52;;;;;;;12.85;7.30;;;12.20;99.90;;;;;;5117826;28;20050;-71
2022/09/14 03:48:20;;;;;;;11.02;7.30;;;12.10;99.90;;;;;;5117863;28;20046;-71
2022/09/14 03:50:47;;;;;;;13.85;7.22;;;12.10;99.90;;;;;;5117494;28;20122;-71
2022/09/14 03:53:16;;;;;;;13.20;7.30;;;12.00;99.90;;;;;;5116282;28;20084;-72
2022/09/14 03:55:43;;;;;;;12.18;7.43;;;12.00;99.90;;;;;;5118072;28;20043;-73
2022/09/14 03:58:10;;;;;;;13.80;7.00;;;12.00;99.90;;;;;;5117751;28;20414;-73
2022/09/14 04:00:40;;;;;;;10.18;7.32;;;11.90;99.90;;;;;;5115778;28;20619;-73
2022/09/14 04:03:07;;;;;;;10.95;6.78;;;11.90;99.90;;;;;;5106150;28;20075;-72
2022/09/14 04:05:35;;;;;;;12.88;7.15;;;11.90;99.90;;;;;;5117391;28;20036;-73
2022/09/14 04:08:03;;;;;;;10.52;7.35;;;12.00;99.90;;;;;;5118284;28;20104;-72
2022/09/14 04:10:31;;;;;;;12.80;7.93;;;12.00;99.90;;;;;;5117519;28;20047;-73
2022/09/14 04:13:01;;;;;;;15.52;8.55;;;12.00;99.90;;;;;;5116637;28;20043;-76
2022/09/14 04:15:29;;;;;;;13.18;8.38;;;11.90;99.90;;;;;;5117274;28;20574;-73
2022/09/14 04:17:56;;;;;;;12.45;9.20;;;11.90;99.90;;;;;;5117182;28;20048;-72
2022/09/14 04:20:24;;;;;;;17.73;11.52;;;11.90;99.90;;;;;;5117457;28;20067;-73
2022/09/14 04:22:51;;;;;;;16.98;10.90;;;11.90;99.90;;;;;;5098229;28;20051;-72
2022/09/14 04:25:18;;;;;;;15.55;9.10;;;11.90;99.90;;;;;;5120029;28;20044;-73
2022/09/14 04:27:47;;;;;;;17.02;9.13;;;11.90;99.90;;;;;;5105340;28;20048;-74
2022/09/14 04:30:15;;;;;;;16.67;8.05;;;11.90;99.90;;;;;;5124722;28;20494;-73
2022/09/14 04:32:43;;;;;;;15.23;7.95;;;11.80;99.90;;;;;;5107140;28;20074;-73
2022/09/14 04:35:10;;;;;;;24.55;10.68;;;11.80;99.90;;;;;;5103535;28;20044;-72
2022/09/14 04:37:38;;;;;;;29.08;8.27;;;11.80;99.90;;;;;;5103324;28;20096;-72
2022/09/14 04:40:06;;;;;;;12.30;8.40;;;11.80;99.90;;;;;;5124436;28;20059;-72
2022/09/14 04:42:33;;;;;;;13.63;7.43;;;11.90;99.90;;;;;;5119231;28;20050;-73
2022/09/14 04:45:03;;;;;;;16.90;9.30;;;11.90;99.90;;;;;;5118572;28;20098;-73
2022/09/14 04:47:30;;;;;;;13.73;8.73;;;11.90;99.90;;;;;;5117915;28;20048;-73
2022/09/14 04:49:57;;;;;;;16.00;8.02;;;11.90;99.90;;;;;;5117168;28;20043;-73
2022/09/14 04:52:25;;;;;;;12.45;7.63;;;11.90;99.90;;;;;;5116188;28;20039;-72
2022/09/14 04:54:52;;;;;;;18.05;8.60;;;11.90;99.90;;;;;;5115858;28;20113;-73
2022/09/14 04:57:19;;;;;;;15.70;9.05;;;12.00;99.90;;;;;;5110593;28;20088;-73
2022/09/14 04:59:47;;;;;;;22.15;8.00;;;12.10;99.90;;;;;;5114811;27;20085;-73
2022/09/14 05:02:15;;;;;;;16.17;7.78;;;12.20;99.90;;;;;;5124057;27;20073;-73
2022/09/14 05:04:43;;;;;;;37.80;9.75;;;12.20;99.90;;;;;;5120376;27;20114;-73
2022/09/14 05:07:10;;;;;;;11.63;6.88;;;12.30;99.90;;;;;;5116302;27;20046;-73
2022/09/14 05:09:37;;;;;;;14.35;7.20;;;12.30;99.90;;;;;;5115031;28;20032;-73
2022/09/14 05:12:05;;;;;;;11.65;6.38;;;12.40;99.90;;;;;;5115074;27;20044;-73
2022/09/14 05:14:32;;;;;;;13.90;7.15;;;12.50;99.90;;;;;;5114394;27;20091;-73
2022/09/14 05:17:01;;;;;;;16.45;7.07;;;12.60;99.90;;;;;;5136973;27;20042;-73
2022/09/14 05:19:30;;;;;;;18.85;8.30;;;12.70;99.90;;;;;;5121482;27;20044;-73
2022/09/14 05:21:57;;;;;;;15.75;8.02;;;12.80;99.90;;;;;;5116069;28;20078;-73
2022/09/14 05:24:25;;;;;;;14.25;8.35;;;12.90;99.90;;;;;;5120182;27;20050;-74
2022/09/14 05:26:53;;;;;;;12.05;7.55;;;13.00;99.90;;;;;;5122881;27;20043;-74
2022/09/14 05:29:20;;;;;;;16.83;7.93;;;13.10;99.90;;;;;;5116205;28;20050;-74
2022/09/14 05:31:48;;;;;;;13.30;7.25;;;13.20;99.90;;;;;;5095068;28;20101;-74
2022/09/14 05:34:16;;;;;;;16.33;8.48;;;13.30;99.90;;;;;;5115244;28;20452;-74
2022/09/14 05:36:45;;;;;;;16.80;8.32;;;13.40;99.90;;;;;;5093807;28;20040;-73
2022/09/14 05:39:12;;;;;;;15.85;10.52;;;13.50;99.90;;;;;;5097161;28;20541;-73
2022/09/14 05:41:40;;;;;;;19.48;11.55;;;13.70;99.90;;;;;;5097013;28;20044;-73
2022/09/14 05:44:07;;;;;;;14.95;8.57;;;13.90;99.90;;;;;;5114681;28;20047;-73
2022/09/14 05:46:35;;;;;;;14.68;10.32;;;14.10;99.90;;;;;;5114357;28;20032;-73
2022/09/14 05:49:04;;;;;;;21.65;10.65;;;14.40;99.90;;;;;;5114680;28;20052;-73
2022/09/14 05:51:32;;;;;;;26.33;14.13;;;14.70;99.90;;;;;;5114893;28;20042;-73
2022/09/14 05:54:01;;;;;;;17.95;9.48;;;15.00;99.90;;;;;;5110715;28;20055;-73
2022/09/14 05:56:30;;;;;;;18.90;8.70;;;15.20;99.90;;;;;;5093785;28;20052;-74
2022/09/14 05:58:59;;;;;;;19.40;10.45;;;15.50;99.90;;;;;;5098899;28;20043;-73
2022/09/14 06:01:28;;;;;;;15.27;9.48;;;15.60;99.90;;;;;;5093488;28;20044;-73
2022/09/14 06:03:57;;;;;;;14.90;8.57;;;15.70;99.90;;;;;;5094693;28;20441;-74
2022/09/14 06:06:24;;;;;;;13.23;8.45;;;15.90;99.90;;;;;;5091112;28;20034;-74
2022/09/14 06:08:54;;;;;;;17.40;8.70;;;16.10;99.90;;;;;;5086606;28;20040;-74
2022/09/14 06:11:25;;;;;;;14.93;9.13;;;16.40;99.90;;;;;;5075738;28;20044;-73
2022/09/14 06:13:54;;;;;;;18.85;9.77;;;16.60;99.90;;;;;;5097238;28;20112;-74
2022/09/14 06:16:23;;;;;;;16.48;9.50;;;16.90;99.90;;;;;;5094276;28;20453;-72
2022/09/14 06:18:50;;;;;;;18.35;8.90;;;17.20;99.90;;;;;;5106331;28;20061;-72
2022/09/14 06:21:19;;;;;;;19.98;9.23;;;17.60;99.90;;;;;;5091278;28;20051;-71
2022/09/14 06:23:48;;;;;;;14.27;7.53;;;17.70;99.90;;;;;;5087512;28;20032;-71
2022/09/14 06:26:16;;;;;;;12.52;7.32;;;17.60;99.90;;;;;;5069764;28;20040;-71
2022/09/14 06:28:44;;;;;;;17.33;7.53;;;17.70;99.90;;;;;;5094265;28;20046;-72
2022/09/14 06:31:13;;;;;;;13.02;7.15;;;17.80;99.90;;;;;;5091626;28;20044;-72
2022/09/14 06:33:43;;;;;;;14.00;6.65;;;17.80;99.90;;;;;;5092750;28;20044;-73
2022/09/14 06:36:13;;;;;;;11.52;6.53;;;17.80;99.90;;;;;;5094024;28;20043;-73
2022/09/14 06:38:41;;;;;;;9.73;6.60;;;17.90;99.90;;;;;;5094730;28;20044;-73
2022/09/14 06:41:11;;;;;;;20.80;6.90;;;17.90;99.90;;;;;;5094140;28;20036;-72
2022/09/14 06:43:39;;;;;;;16.05;7.10;;;18.10;99.90;;;;;;5093201;28;20487;-71
2022/09/14 06:46:11;;;;;;;12.93;7.15;;;18.10;99.90;;;;;;5093320;28;20044;-72
2022/09/14 06:48:41;;;;;;;13.90;6.45;;;18.20;99.90;;;;;;5093653;28;20071;-72
2022/09/14 06:51:13;;;;;;;16.63;6.93;;;18.30;99.90;;;;;;5098120;28;20040;-78
2022/09/14 06:53:41;;;;;;;14.80;6.32;;;18.40;99.90;;;;;;5107120;28;20480;-76
2022/09/14 06:56:08;;;;;;;10.20;5.90;;;18.40;99.90;;;;;;5112421;28;20060;-78
2022/09/14 06:58:36;;;;;;;14.48;6.68;;;18.30;99.90;;;;;;5115255;28;20040;-70
2022/09/14 07:01:03;;;;;;;17.45;6.88;;;18.40;99.90;;;;;;5114664;28;20107;-71
2022/09/14 07:03:34;;;;;;;16.00;7.50;;;18.50;99.90;;;;;;5113955;28;20080;-71
2022/09/14 07:06:05;;;;;;;14.15;6.38;;;18.80;99.90;;;;;;5113926;28;20044;-71
2022/09/14 07:08:33;;;;;;;19.08;10.77;;;18.90;99.90;;;;;;5114150;28;20044;-71
2022/09/14 07:11:00;;;;;;;14.77;6.65;;;19.20;99.90;;;;;;5114003;28;20051;-71
2022/09/14 07:13:28;;;;;;;15.93;7.43;;;19.50;99.90;;;;;;5095767;28;20043;-71
2022/09/14 07:15:58;;;;;;;16.15;6.50;;;19.90;99.90;;;;;;5113635;28;20050;-71
2022/09/14 07:18:27;;;;;;;17.65;6.93;;;20.20;1.00;;;;;;5113394;28;20044;-71
2022/09/14 07:20:56;;;;;;;12.40;6.43;;;20.40;99.90;;;;;;5113681;28;20052;-71
2022/09/14 07:23:23;;;;;;;12.43;5.43;;;20.50;1.00;;;;;;5095097;28;20039;-71
2022/09/14 07:26:00;;;;;;;13.57;6.80;;;20.80;1.00;;;;;;5113899;28;20050;-71
2022/09/14 07:28:28;;;;;;;12.15;6.47;;;21.10;1.00;;;;;;5113387;28;20100;-71
2022/09/14 07:30:55;;;;;;;16.42;5.60;;;21.40;1.00;;;;;;5112734;28;20088;-71
2022/09/14 07:33:23;;;;;;;7.80;4.50;;;21.50;1.00;;;;;;5113178;28;20070;-71
2022/09/14 07:35:51;;;;;;;11.07;4.15;;;21.60;1.00;;;;;;5113314;28;20040;-71
2022/09/14 07:38:20;;;;;;;12.18;4.78;;;21.60;99.90;;;;;;5113086;28;20046;-71
2022/09/14 07:40:48;;;;;;;13.48;5.00;;;21.60;99.90;;;;;;5113061;28;20089;-71
2022/09/14 07:43:15;;;;;;;11.30;5.10;;;21.60;1.00;;;;;;5113110;28;20406;-71
2022/09/14 07:45:42;;;;;;;9.98;4.20;;;21.90;99.90;;;;;;5094975;28;20065;-72
2022/09/14 07:48:09;;;;;;;10.95;4.25;;;21.90;1.00;;;;;;5113637;28;20039;-71
2022/09/14 07:50:37;;;;;;;11.18;5.20;;;21.90;1.00;;;;;;5113357;28;20043;-71
2022/09/14 07:53:04;;;;;;;13.68;4.63;;;22.10;1.00;;;;;;5113973;28;20082;-71
2022/09/14 07:55:33;;;;;;;9.18;4.30;;;22.10;1.00;;;;;;5113853;28;20052;-70
2022/09/14 07:58:01;;;;;;;8.45;3.47;;;22.10;99.90;;;;;;5097037;28;20043;-72
2022/09/14 08:00:28;;;;;;;7.00;3.60;;;22.20;1.00;;;;;;5114839;28;20101;-69
2022/09/14 08:02:56;;;;;;;9.73;3.60;;;22.40;1.00;;;;;;5113134;28;20058;-72
2022/09/14 08:05:24;;;;;;;6.65;4.20;;;22.60;99.90;;;;;;5113482;28;20050;-72
2022/09/14 08:07:55;;;;;;;8.35;4.13;;;22.90;1.00;;;;;;5113182;28;20487;-72
2022/09/14 08:10:23;;;;;;;5.97;3.58;;;23.30;1.00;;;;;;5113053;28;20457;-71
2022/09/14 08:12:52;;;;;;;5.03;3.00;;;23.80;99.90;;;;;;5112869;28;20047;-71
2022/09/14 08:15:20;;;;;;;7.65;3.70;;;23.90;99.90;;;;;;5113044;28;20054;-71
2022/09/14 08:17:48;;;;;;;7.80;3.50;;;24.10;99.90;;;;;;5115185;28;20130;-71
2022/09/14 08:20:16;;;;;;;6.45;3.08;;;24.30;99.90;;;;;;5114429;28;20074;-71
2022/09/14 08:22:44;;;;;;;8.07;3.33;;;24.50;99.90;;;;;;5112965;28;20056;-72
2022/09/14 08:25:12;;;;;;;10.48;3.05;;;24.60;99.90;;;;;;5112872;28;20058;-70
2022/09/14 08:27:39;;;;;;;10.80;3.55;;;24.60;99.90;;;;;;5112628;28;20123;-70
2022/09/14 08:30:11;;;;;;;6.97;3.22;;;24.90;99.90;;;;;;5114662;28;20126;-72
2022/09/14 08:32:39;;;;;;;7.55;2.65;;;25.10;99.90;;;;;;5116458;28;20054;-72
2022/09/14 08:35:07;;;;;;;8.98;2.65;;;25.20;99.90;;;;;;5113960;28;20040;-72
2022/09/14 08:37:34;;;;;;;8.77;4.53;;;25.30;99.90;;;;;;5112588;28;20048;-71
2022/09/14 08:40:02;;;;;;;6.00;2.80;;;25.30;99.90;;;;;;5116930;28;20043;-71
2022/09/14 08:42:30;;;;;;;10.32;5.03;;;25.20;99.90;;;;;;5116766;28;20051;-72
2022/09/14 08:45:02;;;;;;;8.02;3.08;;;25.30;99.90;;;;;;5116451;28;20039;-72
2022/09/14 08:47:35;;;;;;;10.15;4.03;;;25.30;99.90;;;;;;5117264;27;20046;-71
2022/09/14 08:50:11;;;;;;;6.13;2.78;;;25.40;99.90;;;;;;5119113;28;20526;-72
2022/09/14 08:52:41;;;;;;;9.80;3.30;;;25.40;99.90;;;;;;5118264;28;20054;-72
2022/09/14 08:55:24;;;;;;;6.32;3.45;;;25.60;99.90;;;;;;5116586;28;20089;-71
2022/09/14 08:57:59;;;;;;;6.28;3.40;;;25.50;99.90;;;;;;5116703;28;20048;-71
2022/09/14 09:00:36;;;;;;;3.83;3.00;;;25.40;99.90;;;;;;5116496;28;20116;-71
2022/09/14 09:03:39;;;;;;;5.28;3.00;;;25.50;99.90;;;;;;5116704;28;20047;-71
2022/09/14 09:06:12;;;;;;;6.55;3.10;;;25.50;99.90;;;;;;5115898;28;20048;-70
2022/09/14 09:08:46;;;;;;;9.75;2.80;;;25.50;99.90;;;;;;5115309;28;20495;-72
2022/09/14 09:11:21;;;;;;;6.57;3.40;;;25.50;99.90;;;;;;5116265;28;20058;-71
2022/09/14 09:13:50;;;;;;;6.82;3.33;;;25.50;99.90;;;;;;5102232;28;20056;-71
2022/09/14 09:16:21;;;;;;;8.45;3.42;;;25.60;99.90;;;;;;5095906;28;20063;-71
2022/09/14 09:18:54;;;;;;;6.50;3.70;;;25.70;99.90;;;;;;5095612;28;20145;-71
2022/09/14 09:21:25;;;;;;;7.13;3.40;;;25.50;99.90;;;;;;5095311;28;20044;-71
2022/09/14 09:23:55;;;;;;;8.20;3.67;;;25.40;99.90;;;;;;5095369;28;20044;-71
2022/09/14 09:26:28;;;;;;;5.47;3.20;;;25.70;99.90;;;;;;5112614;28;20104;-71
2022/09/14 09:28:58;;;;;;;6.88;3.47;;;25.70;99.90;;;;;;5116200;28;20050;-71
2022/09/14 09:31:31;;;;;;;5.45;3.72;;;25.70;99.90;;;;;;5115698;28;20104;-71
2022/09/14 09:34:25;;;;;;;8.23;4.35;;;25.70;99.90;;;;;;5115648;28;20050;-72
2022/09/14 09:36:54;;;;;;;7.82;4.88;;;25.90;99.90;;;;;;5097990;28;20073;-72
2022/09/14 09:39:23;;;;;;;9.45;4.10;;;26.10;99.90;;;;;;5115438;28;20051;-71
2022/09/14 09:41:56;;;;;;;10.60;4.65;;;26.40;99.90;;;;;;5096291;28;20048;-72
2022/09/14 09:44:24;;;;;;;6.80;3.58;;;26.40;99.90;;;;;;5113343;28;20071;-72
2022/09/14 09:46:54;;;;;;;5.53;3.00;;;26.60;99.90;;;;;;5114550;28;20035;-72
2022/09/14 09:49:25;;;;;;;7.60;4.90;;;26.80;99.90;;;;;;5114977;28;20115;-71
2022/09/14 09:51:53;;;;;;;5.53;3.42;;;26.90;99.90;;;;;;5115321;28;20043;-71
2022/09/14 09:54:27;;;;;;;4.05;2.60;;;26.90;98.70;;;;;;5113381;28;20456;-71
2022/09/14 09:56:57;;;;;;;6.65;3.45;;;26.90;98.10;;;;;;5115904;28;20088;-73
2022/09/14 09:59:31;;;;;;;5.38;2.75;;;27.00;97.90;;;;;;5113658;28;20502;-73
2022/09/14 10:02:23;;;;;;;6.68;2.70;;;27.00;96.10;;;;;;5112130;28;20047;-73
2022/09/14 10:04:59;;;;;;;5.32;3.20;;;27.20;95.90;;;;;;5114854;28;20043;-73
2022/09/14 10:07:28;;;;;;;7.70;3.45;;;27.30;95.30;;;;;;5114729;28;20036;-73
2022/09/14 10:10:01;;;;;;;5.75;3.95;;;27.50;94.30;;;;;;5096313;28;20050;-74
2022/09/14 10:12:30;;;;;;;4.70;3.13;;;27.50;93.10;;;;;;5114598;28;20039;-73
2022/09/14 10:15:16;;;;;;;6.15;3.20;;;27.50;92.70;;;;;;5095957;28;20043;-73
2022/09/14 10:18:04;;;;;;;7.47;3.65;;;27.50;92.40;;;;;;5109150;28;20070;-73
2022/09/14 10:20:34;;;;;;;6.47;3.63;;;27.50;92.30;;;;;;5095418;28;20040;-73
2022/09/14 10:23:21;;;;;;;10.75;5.97;;;27.60;92.30;;;;;;5113613;28;20449;-73
2022/09/14 10:25:50;;;;;;;9.43;5.00;;;27.70;92.20;;;;;;5114062;28;20040;-74
2022/09/14 10:28:28;;;;;;;8.70;5.32;;;27.80;93.50;;;;;;5095433;28;20047;-74
2022/09/14 10:31:01;;;;;;;6.38;4.25;;;27.90;93.90;;;;;;5113910;28;20039;-74
2022/09/14 10:33:29;;;;;;;6.90;4.32;;;28.30;92.90;;;;;;5114016;28;20111;-73
2022/09/14 10:36:06;;;;;;;5.95;3.83;;;28.60;91.80;;;;;;5113563;28;20042;-73
2022/09/14 10:38:40;;;;;;;13.63;6.18;;;28.80;91.30;;;;;;5113557;28;20568;-72
2022/09/14 10:41:16;;;;;;;7.25;4.50;;;29.10;90.80;;;;;;5114092;28;20044;-73
2022/09/14 10:43:56;;;;;;;9.95;5.20;;;29.30;86.60;;;;;;5113508;28;20039;-72
2022/09/14 10:46:30;;;;;;;5.80;3.30;;;29.40;80.70;;;;;;5102281;28;20044;-72
2022/09/14 10:49:30;;;;;;;6.82;3.70;;;29.50;77.90;;;;;;5114145;28;20119;-72
2022/09/14 10:52:10;;;;;;;8.68;4.38;;;29.60;77.20;;;;;;5095379;28;20135;-71
2022/09/14 10:55:01;;;;;;;10.18;5.20;;;29.60;77.60;;;;;;5095344;28;20062;-71
2022/09/14 10:57:46;;;;;;;16.20;6.65;;;29.60;78.50;;;;;;5109513;28;20180;-72
2022/09/14 11:00:17;;;;;;;8.40;4.10;;;29.80;77.60;;;;;;5113271;28;20055;-72
2022/09/14 11:03:01;;;;;;;9.65;4.88;;;30.00;77.90;;;;;;5112587;28;20071;-72
2022/09/14 11:05:33;;;;;;;7.47;4.53;;;30.10;78.20;;;;;;5106310;28;20486;-71
2022/09/14 11:08:12;;;;;;;11.10;4.38;;;30.00;78.00;;;;;;5112624;28;20035;-71
2022/09/14 11:10:51;;;;;;;8.70;4.55;;;30.10;77.70;;;;;;5110771;28;20071;-71
2022/09/14 11:13:46;;;;;;;29.92;22.15;;;30.30;78.40;;;;;;5113601;28;20039;-72
2022/09/14 11:16:38;;;;;;;9.27;5.00;;;30.40;79.10;;;;;;5109045;28;20055;-71
2022/09/14 11:19:16;;;;;;;19.80;13.93;;;30.40;75.90;;;;;;5114310;28;20036;-71
2022/09/14 11:21:52;;;;;;;13.35;8.57;;;30.50;75.20;;;;;;5114471;28;20044;-72
2022/09/14 11:24:25;;;;;;;12.50;6.93;;;30.50;74.50;;;;;;5112462;28;20066;-72
2022/09/14 11:27:01;;;;;;;13.30;7.43;;;30.60;73.30;;;;;;5113766;28;20063;-82
2022/09/14 11:29:33;;;;;;;12.30;5.28;;;30.60;73.60;;;;;;5099849;28;20041;-71
2022/09/14 11:32:06;;;;;;;26.23;15.40;;;30.50;73.40;;;;;;5096248;28;20117;-75
2022/09/14 11:34:37;;;;;;;11.32;5.05;;;30.70;73.70;;;;;;5112425;28;20452;-76
2022/09/14 11:37:07;;;;;;;9.57;3.75;;;30.50;72.40;;;;;;5104832;28;20039;-72
2022/09/14 11:39:38;;;;;;;12.40;7.00;;;30.70;73.20;;;;;;5115585;28;20036;-82
2022/09/14 11:42:09;;;;;;;10.95;8.32;;;30.60;73.60;;;;;;5116608;28;20047;-72
2022/09/14 11:44:39;;;;;;;9.63;6.70;;;30.60;73.80;;;;;;5114376;28;20044;-75
2022/09/14 11:47:09;;;;;;;8.07;5.10;;;30.40;73.80;;;;;;5113408;28;20048;-72
2022/09/14 11:49:51;;;;;;;8.98;4.70;;;30.50;73.90;;;;;;5085381;28;20093;-77
2022/09/14 11:52:22;;;;;;;8.95;4.25;;;30.50;74.00;;;;;;5089068;28;20100;-72
2022/09/14 11:54:52;;;;;;;11.52;6.90;;;30.40;74.70;;;;;;5112834;28;20461;-74
2022/09/14 11:57:22;;;;;;;13.43;7.22;;;30.30;75.20;;;;;;5112779;28;20055;-73
2022/09/14 11:59:53;;;;;;;11.40;4.68;;;30.30;74.90;;;;;;5112879;28;20453;-72
2022/09/14 12:03:01;;;;;;;12.38;4.30;;;30.20;74.50;;;;;;5113541;28;20039;-72
2022/09/14 12:05:31;;;;;;;13.32;6.47;;;30.20;76.00;;;;;;5107845;28;20044;-72
2022/09/14 12:08:04;;;;;;;10.68;4.95;;;30.30;76.30;;;;;;5116638;28;20147;-73
2022/09/14 12:11:00;;;;;;;7.57;3.75;;;30.40;75.80;;;;;;5110694;28;20040;-73
2022/09/14 12:13:27;;;;;;;12.15;4.15;;;30.40;76.50;;;;;;5108247;28;20070;-73
2022/09/14 12:16:03;;;;;;;7.50;5.25;;;30.30;76.80;;;;;;5114460;28;20101;-72
2022/09/14 12:18:31;;;;;;;7.45;4.85;;;30.40;75.30;;;;;;5111452;28;20031;-72
2022/09/14 12:21:06;;;;;;;9.98;5.50;;;30.40;76.30;;;;;;5114974;28;20590;-73
2022/09/14 12:23:44;;;;;;;;;;;30.30;75.80;;;;;;5115054;28;20039;-72
2022/09/14 12:26:31;;;;;;;10.32;4.10;;;30.10;76.00;;;;;;5114802;28;19927;-73
2022/09/14 12:29:04;;;;;;;8.57;3.65;;;30.10;73.90;;;;;;5114769;28;20136;-72
2022/09/14 12:31:43;;;;;;;8.77;3.17;;;30.40;73.90;;;;;;5114959;28;20044;-72
2022/09/14 12:34:20;;;;;;;11.32;3.38;;;30.30;73.70;;;;;;5097383;28;20043;-72
2022/09/14 12:37:29;;;;;;;8.25;3.55;;;30.40;73.30;;;;;;5116929;28;20093;-72
2022/09/14 12:40:33;;;;;;;18.60;10.55;;;30.40;74.10;;;;;;5116801;28;20050;-73
2022/09/14 12:43:55;;;;;;;8.55;3.40;;;30.40;74.10;;;;;;5116596;28;20070;-71
2022/09/14 12:46:39;;;;;;;9.25;4.20;;;30.50;74.50;;;;;;5116672;28;20047;-73
2022/09/14 12:49:31;;;;;;;8.35;3.60;;;30.50;74.20;;;;;;5098453;28;20039;-72
2022/09/14 12:52:14;;;;;;;9.27;3.08;;;30.50;74.80;;;;;;5116540;28;20039;-73
2022/09/14 12:54:55;;;;;;;6.95;3.28;;;30.80;74.30;;;;;;5115180;28;20056;-73
2022/09/14 12:57:34;;;;;;;10.00;3.53;;;30.80;73.00;;;;;;5116317;28;20506;-72
2022/09/14 13:00:11;;;;;;;7.22;3.33;;;30.80;72.50;;;;;;5110019;28;20089;-72
2022/09/14 13:02:58;;;;;;;10.10;3.80;;;30.80;72.80;;;;;;5116467;28;20482;-72
2022/09/14 13:05:28;;;;;;;6.97;2.63;;;31.00;72.90;;;;;;5104839;28;20070;-72